sensor_id;sensor_type;location;lat;lon;timestamp;P1;durP1;ratioP1;P2;durP2;ratioP2
7783;SDS011;19359;51.402;6.778;2023-05-07T00:02:15;756.95;;;390.75;;
7783;SDS011;19359;51.402;6.778;2023-05-07T00:04:42;762.78;;;394.98;;
7783;SDS011;19359;51.402;6.778;2023-05-07T00:07:09;762.10;;;390.40;;
7783;SDS011;19359;51.402;6.778;2023-05-07T00:09:35;764.00;;;397.55;;
7783;SDS011;19359;51.402;6.778;2023-05-07T00:12:04;760.40;;;386.73;;
7783;SDS011;19359;51.402;6.778;2023-05-07T00:14:31;764.33;;;390.25;;
7783;SDS011;19359;51.402;6.778;2023-05-07T00:16:58;764.42;;;395.52;;
7783;SDS011;19359;51.402;6.778;2023-05-07T00:19:24;761.38;;;388.75;;
7783;SDS011;19359;51.402;6.778;2023-05-07T00:21:51;765.00;;;394.17;;
7783;SDS011;19359;51.402;6.778;2023-05-07T00:24:19;761.33;;;383.58;;
7783;SDS011;19359;51.402;6.778;2023-05-07T00:26:46;761.15;;;385.77;;
7783;SDS011;19359;51.402;6.778;2023-05-07T00:29:15;761.35;;;377.38;;
7783;SDS011;19359;51.402;6.778;2023-05-07T00:31:41;756.03;;;381.60;;
7783;SDS011;19359;51.402;6.778;2023-05-07T00:34:08;757.60;;;380.20;;
7783;SDS011;19359;51.402;6.778;2023-05-07T00:36:35;627.78;;;376.65;;
7783;SDS011;19359;51.402;6.778;2023-05-07T00:39:02;620.03;;;383.73;;
7783;SDS011;19359;51.402;6.778;2023-05-07T00:41:29;744.30;;;382.65;;
7783;SDS011;19359;51.402;6.778;2023-05-07T00:43:56;648.38;;;383.13;;
7783;SDS011;19359;51.402;6.778;2023-05-07T00:46:24;557.95;;;373.10;;
7783;SDS011;19359;51.402;6.778;2023-05-07T00:48:51;547.35;;;372.67;;
7783;SDS011;19359;51.402;6.778;2023-05-07T00:51:19;551.53;;;368.20;;
7783;SDS011;19359;51.402;6.778;2023-05-07T00:53:46;568.40;;;352.33;;
7783;SDS011;19359;51.402;6.778;2023-05-07T00:56:13;557.60;;;368.85;;
7783;SDS011;19359;51.402;6.778;2023-05-07T00:58:40;567.00;;;365.33;;
7783;SDS011;19359;51.402;6.778;2023-05-07T01:01:07;543.80;;;356.02;;
7783;SDS011;19359;51.402;6.778;2023-05-07T01:03:35;552.40;;;356.17;;
7783;SDS011;19359;51.402;6.778;2023-05-07T01:06:02;551.08;;;362.17;;
7783;SDS011;19359;51.402;6.778;2023-05-07T01:08:30;546.88;;;355.83;;
7783;SDS011;19359;51.402;6.778;2023-05-07T01:11:00;531.65;;;352.83;;
7783;SDS011;19359;51.402;6.778;2023-05-07T01:13:27;548.08;;;357.50;;
7783;SDS011;19359;51.402;6.778;2023-05-07T01:15:54;540.70;;;354.38;;
7783;SDS011;19359;51.402;6.778;2023-05-07T01:18:21;522.67;;;337.23;;
7783;SDS011;19359;51.402;6.778;2023-05-07T01:20:49;512.17;;;343.42;;
7783;SDS011;19359;51.402;6.778;2023-05-07T01:23:17;513.45;;;340.10;;
7783;SDS011;19359;51.402;6.778;2023-05-07T01:25:50;505.42;;;334.50;;
7783;SDS011;19359;51.402;6.778;2023-05-07T01:28:17;491.17;;;327.52;;
7783;SDS011;19359;51.402;6.778;2023-05-07T01:30:44;482.92;;;337.58;;
7783;SDS011;19359;51.402;6.778;2023-05-07T01:33:14;482.42;;;319.08;;
7783;SDS011;19359;51.402;6.778;2023-05-07T01:35:45;501.25;;;337.50;;
7783;SDS011;19359;51.402;6.778;2023-05-07T01:38:15;487.02;;;314.88;;
7783;SDS011;19359;51.402;6.778;2023-05-07T01:40:44;493.15;;;328.17;;
7783;SDS011;19359;51.402;6.778;2023-05-07T01:43:11;481.67;;;328.00;;
7783;SDS011;19359;51.402;6.778;2023-05-07T01:45:38;481.70;;;341.98;;
7783;SDS011;19359;51.402;6.778;2023-05-07T01:48:06;481.52;;;334.92;;
7783;SDS011;19359;51.402;6.778;2023-05-07T01:50:34;485.17;;;324.30;;
7783;SDS011;19359;51.402;6.778;2023-05-07T01:53:01;488.48;;;329.40;;
7783;SDS011;19359;51.402;6.778;2023-05-07T01:55:29;490.75;;;326.75;;
7783;SDS011;19359;51.402;6.778;2023-05-07T01:57:56;481.90;;;326.80;;
7783;SDS011;19359;51.402;6.778;2023-05-07T02:00:23;485.42;;;330.75;;
7783;SDS011;19359;51.402;6.778;2023-05-07T02:02:50;475.35;;;320.25;;
7783;SDS011;19359;51.402;6.778;2023-05-07T02:05:17;473.55;;;327.30;;
7783;SDS011;19359;51.402;6.778;2023-05-07T02:07:44;467.75;;;313.00;;
7783;SDS011;19359;51.402;6.778;2023-05-07T02:10:11;466.15;;;314.33;;
7783;SDS011;19359;51.402;6.778;2023-05-07T02:12:39;470.85;;;311.08;;
7783;SDS011;19359;51.402;6.778;2023-05-07T02:15:06;473.13;;;319.52;;
7783;SDS011;19359;51.402;6.778;2023-05-07T02:17:33;474.27;;;316.05;;
7783;SDS011;19359;51.402;6.778;2023-05-07T02:20:02;469.58;;;308.52;;
7783;SDS011;19359;51.402;6.778;2023-05-07T02:22:29;459.85;;;314.70;;
7783;SDS011;19359;51.402;6.778;2023-05-07T02:24:56;470.75;;;311.85;;
7783;SDS011;19359;51.402;6.778;2023-05-07T02:27:23;473.75;;;308.25;;
7783;SDS011;19359;51.402;6.778;2023-05-07T02:29:51;465.15;;;312.40;;
7783;SDS011;19359;51.402;6.778;2023-05-07T02:32:18;458.75;;;306.75;;
7783;SDS011;19359;51.402;6.778;2023-05-07T02:34:45;472.80;;;309.85;;
7783;SDS011;19359;51.402;6.778;2023-05-07T02:37:11;465.20;;;314.27;;
7783;SDS011;19359;51.402;6.778;2023-05-07T02:39:38;453.05;;;317.80;;
7783;SDS011;19359;51.402;6.778;2023-05-07T02:42:05;455.55;;;307.67;;
7783;SDS011;19359;51.402;6.778;2023-05-07T02:44:32;445.45;;;300.15;;
7783;SDS011;19359;51.402;6.778;2023-05-07T02:47:01;458.95;;;308.73;;
7783;SDS011;19359;51.402;6.778;2023-05-07T02:49:28;452.33;;;300.90;;
7783;SDS011;19359;51.402;6.778;2023-05-07T02:51:55;448.88;;;299.85;;
7783;SDS011;19359;51.402;6.778;2023-05-07T02:54:22;438.48;;;304.45;;
7783;SDS011;19359;51.402;6.778;2023-05-07T02:56:49;444.88;;;302.88;;
7783;SDS011;19359;51.402;6.778;2023-05-07T02:59:16;450.15;;;303.05;;
7783;SDS011;19359;51.402;6.778;2023-05-07T03:01:42;440.17;;;303.75;;
7783;SDS011;19359;51.402;6.778;2023-05-07T03:04:11;454.67;;;301.48;;
7783;SDS011;19359;51.402;6.778;2023-05-07T03:06:38;447.95;;;298.23;;
7783;SDS011;19359;51.402;6.778;2023-05-07T03:09:05;439.73;;;300.20;;
7783;SDS011;19359;51.402;6.778;2023-05-07T03:11:32;440.48;;;298.05;;
7783;SDS011;19359;51.402;6.778;2023-05-07T03:14:00;438.67;;;302.50;;
7783;SDS011;19359;51.402;6.778;2023-05-07T03:16:27;447.20;;;304.92;;
7783;SDS011;19359;51.402;6.778;2023-05-07T03:18:54;435.52;;;297.00;;
7783;SDS011;19359;51.402;6.778;2023-05-07T03:21:22;433.98;;;275.85;;
7783;SDS011;19359;51.402;6.778;2023-05-07T03:23:49;435.70;;;296.35;;
7783;SDS011;19359;51.402;6.778;2023-05-07T03:26:15;448.85;;;296.92;;
7783;SDS011;19359;51.402;6.778;2023-05-07T03:28:42;440.88;;;295.23;;
7783;SDS011;19359;51.402;6.778;2023-05-07T03:31:09;440.85;;;295.75;;
7783;SDS011;19359;51.402;6.778;2023-05-07T03:33:38;434.90;;;285.98;;
7783;SDS011;19359;51.402;6.778;2023-05-07T03:36:15;443.80;;;279.30;;
7783;SDS011;19359;51.402;6.778;2023-05-07T03:38:43;443.75;;;284.38;;
7783;SDS011;19359;51.402;6.778;2023-05-07T03:41:10;449.95;;;288.33;;
7783;SDS011;19359;51.402;6.778;2023-05-07T03:43:38;446.42;;;285.60;;
7783;SDS011;19359;51.402;6.778;2023-05-07T03:46:04;455.35;;;294.15;;
7783;SDS011;19359;51.402;6.778;2023-05-07T03:48:31;446.48;;;296.35;;
7783;SDS011;19359;51.402;6.778;2023-05-07T03:50:58;448.63;;;292.40;;
7783;SDS011;19359;51.402;6.778;2023-05-07T03:53:25;436.73;;;294.63;;
7783;SDS011;19359;51.402;6.778;2023-05-07T03:55:53;442.80;;;286.25;;
7783;SDS011;19359;51.402;6.778;2023-05-07T03:58:20;458.08;;;290.90;;
7783;SDS011;19359;51.402;6.778;2023-05-07T04:00:47;471.80;;;293.75;;
7783;SDS011;19359;51.402;6.778;2023-05-07T04:03:13;463.77;;;290.27;;
7783;SDS011;19359;51.402;6.778;2023-05-07T04:05:40;440.38;;;290.65;;
7783;SDS011;19359;51.402;6.778;2023-05-07T04:08:07;438.05;;;289.98;;
7783;SDS011;19359;51.402;6.778;2023-05-07T04:10:33;433.45;;;286.38;;
7783;SDS011;19359;51.402;6.778;2023-05-07T04:13:02;437.77;;;289.85;;
7783;SDS011;19359;51.402;6.778;2023-05-07T04:15:28;439.90;;;292.90;;
7783;SDS011;19359;51.402;6.778;2023-05-07T04:17:55;451.05;;;290.17;;
7783;SDS011;19359;51.402;6.778;2023-05-07T04:20:22;460.23;;;288.52;;
7783;SDS011;19359;51.402;6.778;2023-05-07T04:22:49;455.40;;;294.27;;
7783;SDS011;19359;51.402;6.778;2023-05-07T04:25:16;464.75;;;294.02;;
7783;SDS011;19359;51.402;6.778;2023-05-07T04:27:43;465.60;;;294.95;;
7783;SDS011;19359;51.402;6.778;2023-05-07T04:30:12;470.45;;;300.95;;
7783;SDS011;19359;51.402;6.778;2023-05-07T04:32:39;463.42;;;294.55;;
7783;SDS011;19359;51.402;6.778;2023-05-07T04:35:06;464.13;;;293.58;;
7783;SDS011;19359;51.402;6.778;2023-05-07T04:37:33;464.80;;;293.70;;
7783;SDS011;19359;51.402;6.778;2023-05-07T04:40:00;468.27;;;297.33;;
7783;SDS011;19359;51.402;6.778;2023-05-07T04:42:27;460.80;;;284.60;;
7783;SDS011;19359;51.402;6.778;2023-05-07T04:44:54;459.35;;;295.80;;
7783;SDS011;19359;51.402;6.778;2023-05-07T04:47:22;467.33;;;298.02;;
7783;SDS011;19359;51.402;6.778;2023-05-07T04:49:49;454.08;;;297.85;;
7783;SDS011;19359;51.402;6.778;2023-05-07T04:52:16;461.40;;;290.10;;
7783;SDS011;19359;51.402;6.778;2023-05-07T04:54:42;469.13;;;299.95;;
7783;SDS011;19359;51.402;6.778;2023-05-07T04:57:09;444.95;;;295.02;;
7783;SDS011;19359;51.402;6.778;2023-05-07T04:59:36;455.52;;;300.58;;
7783;SDS011;19359;51.402;6.778;2023-05-07T05:02:03;449.80;;;304.98;;
7783;SDS011;19359;51.402;6.778;2023-05-07T05:04:31;482.73;;;309.10;;
7783;SDS011;19359;51.402;6.778;2023-05-07T05:06:58;484.20;;;308.98;;
7783;SDS011;19359;51.402;6.778;2023-05-07T05:09:25;491.77;;;308.50;;
7783;SDS011;19359;51.402;6.778;2023-05-07T05:11:52;491.75;;;312.90;;
7783;SDS011;19359;51.402;6.778;2023-05-07T05:14:19;495.27;;;311.73;;
7783;SDS011;19359;51.402;6.778;2023-05-07T05:16:46;485.05;;;318.95;;
7783;SDS011;19359;51.402;6.778;2023-05-07T05:19:13;481.55;;;319.63;;
7783;SDS011;19359;51.402;6.778;2023-05-07T05:21:41;480.05;;;321.50;;
7783;SDS011;19359;51.402;6.778;2023-05-07T05:24:08;485.52;;;333.90;;
7783;SDS011;19359;51.402;6.778;2023-05-07T05:26:35;480.65;;;331.45;;
7783;SDS011;19359;51.402;6.778;2023-05-07T05:29:02;487.55;;;327.48;;
7783;SDS011;19359;51.402;6.778;2023-05-07T05:31:28;480.60;;;331.33;;
7783;SDS011;19359;51.402;6.778;2023-05-07T05:33:55;500.63;;;344.92;;
7783;SDS011;19359;51.402;6.778;2023-05-07T05:36:22;500.55;;;322.52;;
7783;SDS011;19359;51.402;6.778;2023-05-07T05:38:50;499.13;;;334.73;;
7783;SDS011;19359;51.402;6.778;2023-05-07T05:41:17;484.50;;;331.48;;
7783;SDS011;19359;51.402;6.778;2023-05-07T05:43:43;491.42;;;334.90;;
7783;SDS011;19359;51.402;6.778;2023-05-07T05:46:10;501.15;;;343.15;;
7783;SDS011;19359;51.402;6.778;2023-05-07T05:48:37;493.27;;;345.50;;
7783;SDS011;19359;51.402;6.778;2023-05-07T05:51:04;500.38;;;347.40;;
7783;SDS011;19359;51.402;6.778;2023-05-07T05:53:31;503.67;;;350.00;;
7783;SDS011;19359;51.402;6.778;2023-05-07T05:55:59;532.63;;;358.55;;
7783;SDS011;19359;51.402;6.778;2023-05-07T05:58:26;525.08;;;365.02;;
7783;SDS011;19359;51.402;6.778;2023-05-07T06:00:53;510.67;;;366.25;;
7783;SDS011;19359;51.402;6.778;2023-05-07T06:03:21;526.88;;;369.67;;
7783;SDS011;19359;51.402;6.778;2023-05-07T06:05:48;526.33;;;367.63;;
7783;SDS011;19359;51.402;6.778;2023-05-07T06:08:15;528.75;;;377.35;;
7783;SDS011;19359;51.402;6.778;2023-05-07T06:10:42;523.17;;;381.73;;
7783;SDS011;19359;51.402;6.778;2023-05-07T06:13:10;513.42;;;385.10;;
7783;SDS011;19359;51.402;6.778;2023-05-07T06:15:37;516.35;;;387.52;;
7783;SDS011;19359;51.402;6.778;2023-05-07T06:18:03;522.38;;;390.35;;
7783;SDS011;19359;51.402;6.778;2023-05-07T06:20:31;535.80;;;398.17;;
7783;SDS011;19359;51.402;6.778;2023-05-07T06:22:58;536.85;;;403.42;;
7783;SDS011;19359;51.402;6.778;2023-05-07T06:25:27;545.95;;;404.70;;
7783;SDS011;19359;51.402;6.778;2023-05-07T06:27:54;544.40;;;401.00;;
7783;SDS011;19359;51.402;6.778;2023-05-07T06:30:23;538.33;;;412.38;;
7783;SDS011;19359;51.402;6.778;2023-05-07T06:32:50;541.75;;;407.13;;
7783;SDS011;19359;51.402;6.778;2023-05-07T06:35:17;527.55;;;409.25;;
7783;SDS011;19359;51.402;6.778;2023-05-07T06:37:44;513.40;;;417.67;;
7783;SDS011;19359;51.402;6.778;2023-05-07T06:40:11;530.63;;;413.67;;
7783;SDS011;19359;51.402;6.778;2023-05-07T06:42:38;512.60;;;423.83;;
7783;SDS011;19359;51.402;6.778;2023-05-07T06:45:05;532.20;;;415.77;;
7783;SDS011;19359;51.402;6.778;2023-05-07T06:47:34;537.30;;;427.30;;
7783;SDS011;19359;51.402;6.778;2023-05-07T06:50:01;537.78;;;422.13;;
7783;SDS011;19359;51.402;6.778;2023-05-07T06:52:28;547.13;;;420.20;;
7783;SDS011;19359;51.402;6.778;2023-05-07T06:54:55;564.38;;;421.58;;
7783;SDS011;19359;51.402;6.778;2023-05-07T06:57:22;557.65;;;425.67;;
7783;SDS011;19359;51.402;6.778;2023-05-07T06:59:48;553.20;;;445.10;;
7783;SDS011;19359;51.402;6.778;2023-05-07T07:02:15;554.03;;;443.30;;
7783;SDS011;19359;51.402;6.778;2023-05-07T07:04:43;536.72;;;446.52;;
7783;SDS011;19359;51.402;6.778;2023-05-07T07:07:10;537.22;;;446.55;;
7783;SDS011;19359;51.402;6.778;2023-05-07T07:09:37;545.08;;;455.90;;
7783;SDS011;19359;51.402;6.778;2023-05-07T07:12:03;542.85;;;466.45;;
7783;SDS011;19359;51.402;6.778;2023-05-07T07:14:31;545.33;;;467.45;;
7783;SDS011;19359;51.402;6.778;2023-05-07T07:16:57;546.10;;;465.55;;
7783;SDS011;19359;51.402;6.778;2023-05-07T07:19:26;541.90;;;469.17;;
7783;SDS011;19359;51.402;6.778;2023-05-07T07:21:54;537.50;;;468.10;;
7783;SDS011;19359;51.402;6.778;2023-05-07T07:24:21;559.08;;;479.30;;
7783;SDS011;19359;51.402;6.778;2023-05-07T07:26:48;534.90;;;476.17;;
7783;SDS011;19359;51.402;6.778;2023-05-07T07:29:14;548.05;;;479.75;;
7783;SDS011;19359;51.402;6.778;2023-05-07T07:31:41;565.72;;;486.95;;
7783;SDS011;19359;51.402;6.778;2023-05-07T07:34:10;553.05;;;489.63;;
7783;SDS011;19359;51.402;6.778;2023-05-07T07:36:37;562.08;;;488.90;;
7783;SDS011;19359;51.402;6.778;2023-05-07T07:39:05;569.47;;;485.30;;
7783;SDS011;19359;51.402;6.778;2023-05-07T07:41:32;576.78;;;493.65;;
7783;SDS011;19359;51.402;6.778;2023-05-07T07:43:59;576.50;;;502.00;;
7783;SDS011;19359;51.402;6.778;2023-05-07T07:46:28;583.00;;;494.25;;
7783;SDS011;19359;51.402;6.778;2023-05-07T07:48:55;576.67;;;508.45;;
7783;SDS011;19359;51.402;6.778;2023-05-07T07:51:24;571.22;;;508.48;;
7783;SDS011;19359;51.402;6.778;2023-05-07T07:53:51;568.22;;;499.63;;
7783;SDS011;19359;51.402;6.778;2023-05-07T07:56:19;579.60;;;516.92;;
7783;SDS011;19359;51.402;6.778;2023-05-07T07:58:47;589.75;;;525.38;;
7783;SDS011;19359;51.402;6.778;2023-05-07T08:01:14;602.25;;;538.80;;
7783;SDS011;19359;51.402;6.778;2023-05-07T08:03:42;600.90;;;537.42;;
7783;SDS011;19359;51.402;6.778;2023-05-07T08:06:08;612.05;;;547.83;;
7783;SDS011;19359;51.402;6.778;2023-05-07T08:08:35;614.28;;;553.85;;
7783;SDS011;19359;51.402;6.778;2023-05-07T08:11:02;623.55;;;561.90;;
7783;SDS011;19359;51.402;6.778;2023-05-07T08:13:31;634.38;;;576.00;;
7783;SDS011;19359;51.402;6.778;2023-05-07T08:15:57;647.80;;;588.13;;
7783;SDS011;19359;51.402;6.778;2023-05-07T08:18:25;646.95;;;586.88;;
7783;SDS011;19359;51.402;6.778;2023-05-07T08:20:53;655.13;;;595.10;;
7783;SDS011;19359;51.402;6.778;2023-05-07T08:23:21;661.97;;;602.08;;
7783;SDS011;19359;51.402;6.778;2023-05-07T08:25:48;668.90;;;607.75;;
7783;SDS011;19359;51.402;6.778;2023-05-07T08:28:16;669.05;;;607.83;;
7783;SDS011;19359;51.402;6.778;2023-05-07T08:30:44;671.33;;;611.20;;
7783;SDS011;19359;51.402;6.778;2023-05-07T08:33:11;675.25;;;614.50;;
7783;SDS011;19359;51.402;6.778;2023-05-07T08:35:38;679.80;;;619.10;;
7783;SDS011;19359;51.402;6.778;2023-05-07T08:38:05;671.00;;;611.35;;
7783;SDS011;19359;51.402;6.778;2023-05-07T08:40:33;666.83;;;607.33;;
7783;SDS011;19359;51.402;6.778;2023-05-07T08:43:05;672.78;;;612.63;;
7783;SDS011;19359;51.402;6.778;2023-05-07T08:45:32;689.13;;;627.33;;
7783;SDS011;19359;51.402;6.778;2023-05-07T08:48:02;682.15;;;619.78;;
7783;SDS011;19359;51.402;6.778;2023-05-07T08:50:31;674.28;;;614.13;;
7783;SDS011;19359;51.402;6.778;2023-05-07T08:52:58;671.35;;;609.38;;
7783;SDS011;19359;51.402;6.778;2023-05-07T08:55:26;679.08;;;618.28;;
7783;SDS011;19359;51.402;6.778;2023-05-07T08:57:55;673.30;;;611.97;;
7783;SDS011;19359;51.402;6.778;2023-05-07T09:00:21;691.80;;;628.83;;
7783;SDS011;19359;51.402;6.778;2023-05-07T09:02:48;693.47;;;630.15;;
7783;SDS011;19359;51.402;6.778;2023-05-07T09:05:17;698.83;;;634.25;;
7783;SDS011;19359;51.402;6.778;2023-05-07T09:07:44;685.13;;;622.58;;
7783;SDS011;19359;51.402;6.778;2023-05-07T09:10:11;695.67;;;632.20;;
7783;SDS011;19359;51.402;6.778;2023-05-07T09:12:39;701.85;;;640.80;;
7783;SDS011;19359;51.402;6.778;2023-05-07T09:15:06;707.33;;;646.00;;
7783;SDS011;19359;51.402;6.778;2023-05-07T09:17:33;721.35;;;659.38;;
7783;SDS011;19359;51.402;6.778;2023-05-07T09:20:02;724.22;;;661.28;;
7783;SDS011;19359;51.402;6.778;2023-05-07T09:22:32;741.92;;;677.50;;
7783;SDS011;19359;51.402;6.778;2023-05-07T09:24:59;739.25;;;674.63;;
7783;SDS011;19359;51.402;6.778;2023-05-07T09:27:26;742.15;;;678.50;;
7783;SDS011;19359;51.402;6.778;2023-05-07T09:29:53;756.50;;;689.70;;
7783;SDS011;19359;51.402;6.778;2023-05-07T09:32:20;763.90;;;697.05;;
7783;SDS011;19359;51.402;6.778;2023-05-07T09:34:47;768.47;;;701.75;;
7783;SDS011;19359;51.402;6.778;2023-05-07T09:37:14;774.97;;;707.45;;
7783;SDS011;19359;51.402;6.778;2023-05-07T09:39:43;772.00;;;704.72;;
7783;SDS011;19359;51.402;6.778;2023-05-07T09:42:11;775.53;;;709.08;;
7783;SDS011;19359;51.402;6.778;2023-05-07T09:44:39;790.63;;;721.50;;
7783;SDS011;19359;51.402;6.778;2023-05-07T09:47:07;794.47;;;726.30;;
7783;SDS011;19359;51.402;6.778;2023-05-07T09:49:35;785.80;;;719.35;;
7783;SDS011;19359;51.402;6.778;2023-05-07T09:52:03;757.42;;;695.33;;
7783;SDS011;19359;51.402;6.778;2023-05-07T09:54:33;778.70;;;715.03;;
7783;SDS011;19359;51.402;6.778;2023-05-07T09:57:04;767.75;;;705.17;;
7783;SDS011;19359;51.402;6.778;2023-05-07T09:59:32;766.00;;;703.72;;
7783;SDS011;19359;51.402;6.778;2023-05-07T10:02:00;762.17;;;700.55;;
7783;SDS011;19359;51.402;6.778;2023-05-07T10:04:29;766.40;;;704.17;;
7783;SDS011;19359;51.402;6.778;2023-05-07T10:06:57;767.88;;;705.63;;
7783;SDS011;19359;51.402;6.778;2023-05-07T10:09:25;773.75;;;711.85;;
7783;SDS011;19359;51.402;6.778;2023-05-07T10:11:52;767.17;;;705.58;;
7783;SDS011;19359;51.402;6.778;2023-05-07T10:14:22;778.50;;;715.85;;
7783;SDS011;19359;51.402;6.778;2023-05-07T10:16:49;794.65;;;730.95;;
7783;SDS011;19359;51.402;6.778;2023-05-07T10:19:16;784.55;;;722.13;;
7783;SDS011;19359;51.402;6.778;2023-05-07T10:21:48;783.65;;;721.10;;
7783;SDS011;19359;51.402;6.778;2023-05-07T10:24:21;787.28;;;724.92;;
7783;SDS011;19359;51.402;6.778;2023-05-07T10:26:52;780.97;;;718.80;;
7783;SDS011;19359;51.402;6.778;2023-05-07T10:29:25;744.13;;;684.95;;
7783;SDS011;19359;51.402;6.778;2023-05-07T10:32:02;763.47;;;702.90;;
7783;SDS011;19359;51.402;6.778;2023-05-07T10:34:40;724.00;;;666.20;;
7783;SDS011;19359;51.402;6.778;2023-05-07T10:37:10;735.28;;;676.97;;
7783;SDS011;19359;51.402;6.778;2023-05-07T10:39:38;738.28;;;679.83;;
7783;SDS011;19359;51.402;6.778;2023-05-07T10:42:08;768.90;;;708.03;;
7783;SDS011;19359;51.402;6.778;2023-05-07T10:44:36;764.05;;;703.47;;
7783;SDS011;19359;51.402;6.778;2023-05-07T10:47:07;780.17;;;718.22;;
7783;SDS011;19359;51.402;6.778;2023-05-07T10:49:35;749.45;;;690.28;;
7783;SDS011;19359;51.402;6.778;2023-05-07T10:52:13;797.38;;;734.60;;
7783;SDS011;19359;51.402;6.778;2023-05-07T10:54:41;770.70;;;709.72;;
7783;SDS011;19359;51.402;6.778;2023-05-07T11:00:00;750.83;;;691.40;;
7783;SDS011;19359;51.402;6.778;2023-05-07T11:05:23;722.58;;;665.42;;
7783;SDS011;19359;51.402;6.778;2023-05-07T11:07:53;733.28;;;674.83;;
7783;SDS011;19359;51.402;6.778;2023-05-07T11:10:21;717.17;;;660.17;;
7783;SDS011;19359;51.402;6.778;2023-05-07T11:12:52;752.38;;;692.85;;
7783;SDS011;19359;51.402;6.778;2023-05-07T11:18:08;761.40;;;700.67;;
7783;SDS011;19359;51.402;6.778;2023-05-07T11:20:49;773.65;;;711.75;;
7783;SDS011;19359;51.402;6.778;2023-05-07T11:26:43;727.97;;;669.95;;
7783;SDS011;19359;51.402;6.778;2023-05-07T11:29:11;736.25;;;677.60;;
7783;SDS011;19359;51.402;6.778;2023-05-07T11:31:40;743.45;;;684.00;;
7783;SDS011;19359;51.402;6.778;2023-05-07T11:34:07;730.50;;;672.28;;
7783;SDS011;19359;51.402;6.778;2023-05-07T11:36:34;737.70;;;678.95;;
7783;SDS011;19359;51.402;6.778;2023-05-07T11:39:22;798.72;;;734.10;;
7783;SDS011;19359;51.402;6.778;2023-05-07T11:41:53;778.90;;;716.05;;
7783;SDS011;19359;51.402;6.778;2023-05-07T11:44:20;843.00;;;768.05;;
7783;SDS011;19359;51.402;6.778;2023-05-07T11:46:48;841.33;;;765.05;;
7783;SDS011;19359;51.402;6.778;2023-05-07T11:49:16;835.67;;;761.47;;
7783;SDS011;19359;51.402;6.778;2023-05-07T11:51:43;836.88;;;763.50;;
7783;SDS011;19359;51.402;6.778;2023-05-07T11:54:11;832.78;;;758.25;;
7783;SDS011;19359;51.402;6.778;2023-05-07T11:56:39;817.58;;;742.28;;
7783;SDS011;19359;51.402;6.778;2023-05-07T11:59:06;818.95;;;744.60;;
7783;SDS011;19359;51.402;6.778;2023-05-07T12:01:35;807.75;;;735.33;;
7783;SDS011;19359;51.402;6.778;2023-05-07T12:04:04;799.53;;;729.58;;
7783;SDS011;19359;51.402;6.778;2023-05-07T12:06:31;797.38;;;726.00;;
7783;SDS011;19359;51.402;6.778;2023-05-07T12:09:02;784.30;;;714.33;;
7783;SDS011;19359;51.402;6.778;2023-05-07T12:11:29;801.78;;;728.28;;
7783;SDS011;19359;51.402;6.778;2023-05-07T12:13:56;781.50;;;710.90;;
7783;SDS011;19359;51.402;6.778;2023-05-07T12:16:23;782.83;;;710.97;;
7783;SDS011;19359;51.402;6.778;2023-05-07T12:18:50;779.15;;;709.20;;
7783;SDS011;19359;51.402;6.778;2023-05-07T12:21:19;799.80;;;728.08;;
7783;SDS011;19359;51.402;6.778;2023-05-07T12:23:46;787.28;;;715.55;;
7783;SDS011;19359;51.402;6.778;2023-05-07T12:26:13;785.67;;;714.20;;
7783;SDS011;19359;51.402;6.778;2023-05-07T12:28:40;782.92;;;711.47;;
7783;SDS011;19359;51.402;6.778;2023-05-07T12:31:07;783.13;;;711.90;;
7783;SDS011;19359;51.402;6.778;2023-05-07T12:33:35;792.75;;;719.42;;
7783;SDS011;19359;51.402;6.778;2023-05-07T12:36:03;793.33;;;719.72;;
7783;SDS011;19359;51.402;6.778;2023-05-07T12:38:36;794.30;;;721.17;;
7783;SDS011;19359;51.402;6.778;2023-05-07T12:41:05;797.85;;;727.38;;
7783;SDS011;19359;51.402;6.778;2023-05-07T12:43:33;791.95;;;720.17;;
7783;SDS011;19359;51.402;6.778;2023-05-07T12:46:00;786.67;;;716.28;;
7783;SDS011;19359;51.402;6.778;2023-05-07T12:48:29;783.97;;;713.17;;
7783;SDS011;19359;51.402;6.778;2023-05-07T12:50:56;783.65;;;715.55;;
7783;SDS011;19359;51.402;6.778;2023-05-07T12:53:24;780.45;;;710.10;;
7783;SDS011;19359;51.402;6.778;2023-05-07T12:55:54;776.13;;;706.05;;
7783;SDS011;19359;51.402;6.778;2023-05-07T12:58:24;779.97;;;711.00;;
7783;SDS011;19359;51.402;6.778;2023-05-07T13:00:51;784.83;;;713.38;;
7783;SDS011;19359;51.402;6.778;2023-05-07T13:03:22;777.53;;;706.97;;
7783;SDS011;19359;51.402;6.778;2023-05-07T13:05:50;780.58;;;710.67;;
7783;SDS011;19359;51.402;6.778;2023-05-07T13:08:28;777.10;;;705.78;;
7783;SDS011;19359;51.402;6.778;2023-05-07T13:10:58;778.08;;;707.38;;
7783;SDS011;19359;51.402;6.778;2023-05-07T13:13:28;789.38;;;718.20;;
7783;SDS011;19359;51.402;6.778;2023-05-07T13:15:54;781.08;;;711.22;;
7783;SDS011;19359;51.402;6.778;2023-05-07T13:18:21;777.28;;;708.00;;
7783;SDS011;19359;51.402;6.778;2023-05-07T13:20:48;767.00;;;699.40;;
7783;SDS011;19359;51.402;6.778;2023-05-07T13:23:16;764.80;;;696.83;;
7783;SDS011;19359;51.402;6.778;2023-05-07T13:25:43;771.42;;;702.83;;
7783;SDS011;19359;51.402;6.778;2023-05-07T13:28:11;771.78;;;702.25;;
7783;SDS011;19359;51.402;6.778;2023-05-07T13:30:38;749.28;;;680.45;;
7783;SDS011;19359;51.402;6.778;2023-05-07T13:33:06;743.97;;;677.22;;
7783;SDS011;19359;51.402;6.778;2023-05-07T13:35:34;742.80;;;676.92;;
7783;SDS011;19359;51.402;6.778;2023-05-07T13:38:01;743.00;;;674.50;;
7783;SDS011;19359;51.402;6.778;2023-05-07T13:40:28;735.47;;;667.15;;
7783;SDS011;19359;51.402;6.778;2023-05-07T13:42:56;737.92;;;668.38;;
7783;SDS011;19359;51.402;6.778;2023-05-07T13:45:25;720.88;;;652.70;;
7783;SDS011;19359;51.402;6.778;2023-05-07T13:47:54;725.60;;;657.50;;
7783;SDS011;19359;51.402;6.778;2023-05-07T13:50:21;716.70;;;649.28;;
7783;SDS011;19359;51.402;6.778;2023-05-07T13:52:48;704.78;;;637.75;;
7783;SDS011;19359;51.402;6.778;2023-05-07T13:55:16;694.88;;;628.33;;
7783;SDS011;19359;51.402;6.778;2023-05-07T13:57:44;694.47;;;629.47;;
7783;SDS011;19359;51.402;6.778;2023-05-07T14:00:11;700.28;;;634.45;;
7783;SDS011;19359;51.402;6.778;2023-05-07T14:02:40;690.38;;;624.92;;
7783;SDS011;19359;51.402;6.778;2023-05-07T14:05:07;693.50;;;627.78;;
7783;SDS011;19359;51.402;6.778;2023-05-07T14:07:35;691.65;;;625.85;;
7783;SDS011;19359;51.402;6.778;2023-05-07T14:10:02;689.90;;;623.90;;
7783;SDS011;19359;51.402;6.778;2023-05-07T14:12:31;686.03;;;621.85;;
7783;SDS011;19359;51.402;6.778;2023-05-07T14:14:57;682.88;;;619.80;;
7783;SDS011;19359;51.402;6.778;2023-05-07T14:17:25;684.40;;;612.78;;
7783;SDS011;19359;51.402;6.778;2023-05-07T14:19:53;692.13;;;623.47;;
7783;SDS011;19359;51.402;6.778;2023-05-07T14:22:20;666.67;;;600.78;;
7783;SDS011;19359;51.402;6.778;2023-05-07T14:24:47;666.28;;;596.97;;